KLYH/LYH METAR and TAF weather

Enter ICAO airport designator
Station Type Date Time Source
KLYH METAR 2019/02/22 23:54 UTC NOAA

KLYH 222354Z 00000KT 7SM -RA SCT016 BKN075 OVC095 05/04 A3039 RMK AO2 SLP294 P0002 60010 T00500044 10072 20050 53005


Station Type Date Time Source
KLYH Decoded METAR 2019/02/22 23:54 UTC NOAA

LYNCHBURG REGIONAL AIRPORT, VA, United States (KLYH) 37-19N 079-12W 295M
Feb 22, 2019 - 06:54 PM EST / 2019.02.22 2354 UTC
Wind: Calm:0
Visibility: 7 mile(s):0
Sky conditions: overcast
Weather: light rain
Precipitation last hour: 0.02 inches
Temperature: 41.0 F (5.0 C)
Dew Point: 39.9 F (4.4 C)
Relative Humidity: 95%
Pressure (altimeter): 30.39 in. Hg (1029 hPa)
Pressure tendency: 0.01 inches (0.5 hPa) higher than three hours ago
ob: KLYH 222354Z 00000KT 7SM -RA SCT016 BKN075 OVC095 05/04 A3039 RMK AO2 SLP294 P0002 60010 T00500044 10072 20050 53005
cycle: 0

Station Type Date Time Source
KLYH TAF 2019/02/22 22:52 UTC NOAA

TAF
AMD KLYH 222150Z 2222/2318 11005KT P6SM -RA OVC009
TEMPO 2222/2224 4SM RA BR
FM230300 04002KT 4SM -RA BR OVC005
FM230700 05003KT 3SM -RA BR OVC008
FM231300 05006KT 2SM RA BR OVC011


Example: see airport list